createdAt,value
2023-01-09T00:05:02.962Z,101962.34
2023-01-09T00:10:28.059Z,101952.97
2023-01-09T00:15:50.122Z,101968.00
2023-01-09T00:21:13.335Z,101983.00
2023-01-09T00:26:36.271Z,101980.13
2023-01-09T00:32:00.225Z,101991.66
2023-01-09T00:37:23.325Z,102007.47
2023-01-09T00:42:50.081Z,102021.69
2023-01-09T00:48:17.613Z,102018.34
2023-01-09T00:53:42.331Z,102026.97
2023-01-09T00:59:05.319Z,102008.47
2023-01-09T01:04:45.619Z,102031.44
2023-01-09T01:10:20.901Z,102032.84
2023-01-09T01:15:45.269Z,102038.28
2023-01-09T01:21:12.417Z,102023.47
2023-01-09T01:26:34.561Z,102035.97
2023-01-09T01:31:56.885Z,102029.22
2023-01-09T01:37:19.161Z,102029.94
2023-01-09T01:42:49.533Z,102014.69
2023-01-09T01:48:23.620Z,102024.25
2023-01-09T01:53:54.395Z,102037.03
2023-01-09T01:59:26.801Z,102023.63
2023-01-09T02:10:57.831Z,101997.50
2023-01-09T02:16:53.339Z,102000.38
2023-01-09T02:22:38.223Z,102028.31
2023-01-09T02:28:13.428Z,102030.63
2023-01-09T02:34:02.425Z,102023.00
2023-01-09T02:39:36.882Z,102035.91
2023-01-09T02:45:02.184Z,102013.13
2023-01-09T02:50:55.924Z,102018.19
2023-01-09T02:56:45.271Z,102023.19
2023-01-09T03:02:37.046Z,102031.69
2023-01-09T03:08:16.676Z,102040.13
2023-01-09T03:14:05.856Z,102063.53
2023-01-09T03:19:41.752Z,102049.69
2023-01-09T03:25:41.282Z,102050.81
2023-01-09T03:31:09.533Z,102062.84
2023-01-09T03:36:42.075Z,102079.31
2023-01-09T03:42:06.651Z,102079.53
2023-01-09T03:47:28.565Z,102090.59
2023-01-09T03:52:53.382Z,102102.66
2023-01-09T03:58:20.040Z,102069.13
2023-01-09T04:03:43.690Z,102085.75
2023-01-09T04:09:09.144Z,102073.72
2023-01-09T04:14:35.067Z,102108.03
2023-01-09T04:20:02.813Z,102096.81
2023-01-09T04:25:35.409Z,102135.97
2023-01-09T04:30:58.106Z,102133.28
2023-01-09T04:36:24.746Z,102103.66
2023-01-09T04:41:52.842Z,102162.34
2023-01-09T04:47:15.983Z,102167.72
2023-01-09T04:52:44.403Z,102156.06
2023-01-09T04:58:09.847Z,102173.09
2023-01-09T05:03:35.646Z,102178.25
2023-01-09T05:08:57.957Z,102155.44
2023-01-09T05:14:20.156Z,102194.00
2023-01-09T05:19:46.212Z,102193.19
2023-01-09T05:25:08.574Z,102199.22
2023-01-09T05:30:30.842Z,102192.34
2023-01-09T05:35:52.983Z,102224.75
2023-01-09T05:41:15.155Z,102209.44
2023-01-09T05:46:37.310Z,102237.22
2023-01-09T05:51:59.902Z,102246.31
2023-01-09T05:57:22.210Z,102258.41
2023-01-09T06:02:44.388Z,102260.78
2023-01-09T06:08:06.804Z,102255.16
2023-01-09T06:13:39.552Z,102275.13
2023-01-09T06:19:11.937Z,102285.06
2023-01-09T06:24:36.727Z,102287.25
2023-01-09T06:30:02.940Z,102268.00
2023-01-09T06:35:26.813Z,102262.28
2023-01-09T06:40:52.353Z,102273.09
2023-01-09T06:46:15.443Z,102281.91
2023-01-09T06:51:37.824Z,102285.19
2023-01-09T06:57:03.439Z,102309.88
2023-01-09T07:02:25.755Z,102287.00
2023-01-09T07:07:51.157Z,102297.97
2023-01-09T07:13:13.003Z,102311.34
2023-01-09T07:18:34.862Z,102323.97
2023-01-09T07:23:56.965Z,102312.81
2023-01-09T07:29:21.813Z,102319.06
2023-01-09T07:34:46.973Z,102318.53
2023-01-09T07:40:10.400Z,102342.16
2023-01-09T07:45:32.053Z,102356.78
2023-01-09T07:50:53.983Z,102345.03
2023-01-09T07:56:15.775Z,102349.53
2023-01-09T08:01:37.841Z,102364.94
2023-01-09T08:07:00.158Z,102340.53
2023-01-09T08:12:22.420Z,102358.34
2023-01-09T08:17:48.261Z,102372.75
2023-01-09T08:23:13.476Z,102370.22
2023-01-09T08:28:35.884Z,102350.75
2023-01-09T08:34:03.661Z,102404.09
2023-01-09T08:39:26.114Z,102383.69
2023-01-09T08:45:07.603Z,102397.19
2023-01-09T08:50:29.955Z,102395.44
2023-01-09T08:55:52.639Z,102387.78
2023-01-09T09:01:15.357Z,102409.75
2023-01-09T09:06:43.523Z,102395.06
2023-01-09T09:12:19.443Z,102385.69
2023-01-09T09:18:03.008Z,102381.59
2023-01-09T09:24:16.164Z,102348.41
2023-01-09T09:36:35.597Z,102372.34
2023-01-09T09:49:40.538Z,102351.00
2023-01-09T09:55:14.734Z,102330.81
2023-01-09T10:00:39.294Z,102331.78
2023-01-09T10:06:08.346Z,102349.06
2023-01-09T10:11:41.482Z,102348.88
2023-01-09T10:17:30.854Z,102370.53
2023-01-09T10:23:12.274Z,102375.41
2023-01-09T10:29:11.710Z,102375.41
2023-01-09T10:34:36.920Z,102391.06
2023-01-09T10:40:30.286Z,102373.66
2023-01-09T10:45:56.664Z,102375.28
2023-01-09T10:51:24.864Z,102356.47
2023-01-09T10:57:22.667Z,102382.41
2023-01-09T11:02:48.474Z,102381.31
2023-01-09T11:08:18.244Z,102396.25
2023-01-09T11:13:46.414Z,102375.38
2023-01-09T11:19:16.517Z,102387.41
2023-01-09T11:24:39.060Z,102392.28
2023-01-09T11:30:16.350Z,102373.19
2023-01-09T11:35:38.888Z,102382.47
2023-01-09T11:41:07.255Z,102388.50
2023-01-09T11:46:44.480Z,102409.75
2023-01-09T11:52:21.177Z,102402.22
2023-01-09T11:57:43.387Z,102409.28
2023-01-09T12:03:11.746Z,102442.56
2023-01-09T12:09:07.793Z,102430.25
2023-01-09T12:14:47.563Z,102415.06
2023-01-09T12:20:29.114Z,102441.47
2023-01-09T12:26:06.449Z,102448.56
2023-01-09T12:31:53.487Z,102461.47
2023-01-09T12:37:30.834Z,102438.25
2023-01-09T12:43:14.542Z,102459.38
2023-01-09T12:49:05.711Z,102463.03
2023-01-09T12:54:34.798Z,102459.94
2023-01-09T13:00:31.412Z,102466.09
2023-01-09T13:05:54.356Z,102439.94
2023-01-09T13:11:53.554Z,102479.94
2023-01-09T13:17:30.907Z,102443.59
2023-01-09T13:22:58.869Z,102460.50
2023-01-09T13:28:27.811Z,102483.38
2023-01-09T13:34:14.164Z,102440.22
2023-01-09T13:39:40.411Z,102479.22
2023-01-09T13:45:18.424Z,102505.53
2023-01-09T13:50:44.998Z,102482.75
2023-01-09T13:56:07.480Z,102504.84
2023-01-09T14:01:36.036Z,102521.00
2023-01-09T14:07:22.749Z,102517.59
2023-01-09T14:12:48.448Z,102515.91
2023-01-09T14:18:24.630Z,102506.63
2023-01-09T14:23:55.277Z,102522.69
2023-01-09T14:29:36.930Z,102531.16
2023-01-09T14:35:12.311Z,102492.16
2023-01-09T14:40:36.673Z,102533.59
2023-01-09T14:46:07.979Z,102522.59
2023-01-09T14:51:35.624Z,102520.03
2023-01-09T14:57:01.447Z,102537.81
2023-01-09T15:02:24.838Z,102527.69
2023-01-09T15:07:54.223Z,102521.78
2023-01-09T15:13:30.299Z,102569.28
2023-01-09T15:18:57.402Z,102560.81
2023-01-09T15:24:31.161Z,102557.44
2023-01-09T15:29:56.503Z,102575.25
2023-01-09T15:35:23.017Z,102582.06
2023-01-09T15:40:53.443Z,102589.69
2023-01-09T15:46:23.040Z,102596.44
2023-01-09T15:51:47.654Z,102609.16
2023-01-09T15:57:37.195Z,102600.63
2023-01-09T16:03:12.556Z,102614.91
2023-01-09T16:09:01.005Z,102602.16
2023-01-09T16:14:25.552Z,102614.88
2023-01-09T16:20:01.337Z,102593.00
2023-01-09T16:25:35.732Z,102584.47
2023-01-09T16:31:11.412Z,102600.53
2023-01-09T16:36:39.182Z,102584.34
2023-01-09T16:42:29.232Z,102607.25
2023-01-09T16:47:52.876Z,102603.88
2023-01-09T16:53:18.114Z,102597.16
2023-01-09T16:58:50.670Z,102631.97
2023-01-09T17:04:18.756Z,102655.69
2023-01-09T17:09:42.838Z,102646.44
2023-01-09T17:15:19.190Z,102651.53
2023-01-09T17:20:56.724Z,102635.41
2023-01-09T17:26:53.973Z,102626.88
2023-01-09T17:32:27.584Z,102629.34
2023-01-09T17:37:59.552Z,102626.81
2023-01-09T17:43:28.243Z,102621.78
2023-01-09T17:49:09.413Z,102634.47
2023-01-09T17:54:41.671Z,102640.31
2023-01-09T18:00:40.406Z,102594.44
2023-01-09T18:06:10.587Z,102609.78
2023-01-09T18:11:37.050Z,102592.72
2023-01-09T18:17:01.664Z,102626.63
2023-01-09T18:22:33.483Z,102615.41
2023-01-09T18:28:18.984Z,102618.75
2023-01-09T18:33:44.492Z,102600.94
2023-01-09T18:39:19.265Z,102621.34
2023-01-09T18:44:52.021Z,102594.97
2023-01-09T18:50:15.590Z,102600.91
2023-01-09T18:55:38.542Z,102620.38
2023-01-09T19:01:02.226Z,102611.03
2023-01-09T19:06:35.882Z,102626.38
2023-01-09T19:12:02.161Z,102621.25
2023-01-09T19:17:29.501Z,102612.59
2023-01-09T19:22:56.725Z,102644.00
2023-01-09T19:28:22.743Z,102652.69
2023-01-09T19:33:46.064Z,102625.47
2023-01-09T19:39:13.731Z,102639.00
2023-01-09T19:44:36.312Z,102672.88
2023-01-09T19:50:05.009Z,102650.72
2023-01-09T19:55:30.133Z,102677.00
2023-01-09T20:00:54.639Z,102646.63
2023-01-09T20:06:22.902Z,102680.78
2023-01-09T20:11:45.309Z,102687.69
2023-01-09T20:17:07.142Z,102676.56
2023-01-09T20:22:29.544Z,102692.59
2023-01-09T20:27:51.825Z,102675.50
2023-01-09T20:33:14.274Z,102703.47
2023-01-09T20:38:40.144Z,102704.44
2023-01-09T20:44:09.023Z,102701.97
2023-01-09T20:49:31.456Z,102725.78
2023-01-09T20:54:53.103Z,102723.28
2023-01-09T21:00:16.093Z,102724.88
2023-01-09T21:05:41.622Z,102692.44
2023-01-09T21:11:06.242Z,102699.00
2023-01-09T21:16:28.760Z,102716.69
2023-01-09T21:21:53.267Z,102748.19
2023-01-09T21:27:15.955Z,102740.50
2023-01-09T21:32:41.356Z,102736.38
2023-01-09T21:38:04.057Z,102760.16
2023-01-09T21:43:49.636Z,102755.22
2023-01-09T21:49:12.103Z,102746.75
2023-01-09T21:54:34.860Z,102729.84
2023-01-09T21:59:59.408Z,102724.69
2023-01-09T22:05:32.493Z,102735.56
2023-01-09T22:11:16.100Z,102748.34
2023-01-09T22:16:38.272Z,102745.81
2023-01-09T22:22:00.597Z,102753.69
2023-01-09T22:27:22.272Z,102760.34
2023-01-09T22:32:44.333Z,102754.41
2023-01-09T22:38:06.847Z,102756.22
2023-01-09T22:43:30.090Z,102733.44
2023-01-09T22:48:52.276Z,102750.63
2023-01-09T22:54:14.144Z,102742.97
2023-01-09T22:59:36.312Z,102734.34
2023-01-09T23:05:04.272Z,102744.72
2023-01-09T23:10:27.848Z,102722.69
2023-01-09T23:15:50.767Z,102731.09
2023-01-09T23:21:15.375Z,102725.00
2023-01-09T23:26:41.499Z,102749.69
2023-01-09T23:32:05.534Z,102735.19
2023-01-09T23:37:28.195Z,102735.03
2023-01-09T23:43:11.090Z,102746.75
2023-01-09T23:49:38.978Z,102718.53
2023-01-09T23:55:56.953Z,102724.34
